This is the latest recevied weather packets stored in our database for station/object SQ2ODE-13. If no packets are shown the sender has not sent any weather packets the latest 10 day(s).
| Time | Temp. | Humidity | Pressure | Rain* | Wind** | Luminosity | Snow |
|---|---|---|---|---|---|---|---|
| 1777445144 | 6.67° C | 35% | 1025.8 hPa | 0 mm | - | - | - |
| 1777444558 | 6.11° C | 39% | 1025.8 hPa | 0 mm | - | - | - |
| 1777442117 | 3.89° C | 58% | 1025.7 hPa | 0 mm | - | - | - |
| 1777440363 | 2.78° C | 60% | 1025.4 hPa | 0 mm | - | - | - |
| 1777439154 | 2.22° C | 63% | 1025.3 hPa | 0 mm | - | - | - |
| 1777433769 | -1.11° C | 81% | 1024.7 hPa | 0 mm | - | - | - |
| 1777423549 | 0° C | 79% | 1024.4 hPa | 0 mm | - | - | - |
| 1777422359 | 0.56° C | 77% | 1024.5 hPa | 0 mm | - | - | - |
| 1777421128 | 0.56° C | 73% | 1024.4 hPa | 0 mm | - | - | - |
| 1777416952 | 1.11° C | 68% | 1024.2 hPa | 0 mm | - | - | - |
| 1777412721 | 1.11° C | 59% | 1023.8 hPa | 0 mm | - | - | - |
| 1777411566 | 1.67° C | 54% | 1023.6 hPa | 0 mm | - | - | - |
| 1777407330 | 2.78° C | 48% | 1023.2 hPa | 0 mm | - | - | - |
| 1777405575 | 3.89° C | 50% | 1023 hPa | 0 mm | - | - | - |
| 1777404364 | 3.89° C | 49% | 1022.8 hPa | 0 mm | - | - | - |
| 1777401944 | 5° C | 45% | 1022.7 hPa | 0 mm | - | - | - |
| 1777398918 | 7.22° C | 38% | 1022.1 hPa | 0 mm | - | - | - |
| 1777394749 | 9.44° C | 32% | 1021.3 hPa | 0 mm | - | - | - |
| 1777391750 | 10° C | 37% | 1021 hPa | 0 mm | - | - | - |
| 1777375544 | 11.11° C | 17% | 1021.8 hPa | 0 mm | - | - | - |
| 1777371941 | 11.67° C | 19% | 1022.1 hPa | 0 mm | - | - | - |
| 1777370169 | 10.56° C | 21% | 1022.4 hPa | 0 mm | - | - | - |
| 1777366567 | 9.44° C | 27% | 1023 hPa | 0 mm | - | - | - |
| 1777355720 | 3.89° C | 64% | 1023.1 hPa | 0 mm | - | - | - |
| 1777355175 | 3.33° C | 67% | 1023.1 hPa | 0 mm | - | - | - |
* Rain latest hour (hover to see other rain measurements)
** Current wind speed in m/s (hover to see current wind gust speed)